sensor_id;sensor_type;location;lat;lon;timestamp;P1;durP1;ratioP1;P2;durP2;ratioP2
27145;SDS011;17980;51.744;7.190;2023-02-25T00:00:47;7.90;;;2.50;;
27145;SDS011;17980;51.744;7.190;2023-02-25T00:03:24;13.37;;;4.67;;
27145;SDS011;17980;51.744;7.190;2023-02-25T00:05:51;24.57;;;15.90;;
27145;SDS011;17980;51.744;7.190;2023-02-25T00:08:18;13.53;;;3.13;;
27145;SDS011;17980;51.744;7.190;2023-02-25T00:10:56;14.33;;;2.13;;
27145;SDS011;17980;51.744;7.190;2023-02-25T00:13:24;13.27;;;2.10;;
27145;SDS011;17980;51.744;7.190;2023-02-25T00:16:02;14.60;;;4.60;;
27145;SDS011;17980;51.744;7.190;2023-02-25T00:18:30;13.80;;;1.90;;
27145;SDS011;17980;51.744;7.190;2023-02-25T00:21:07;11.10;;;1.67;;
27145;SDS011;17980;51.744;7.190;2023-02-25T00:23:34;10.43;;;1.30;;
27145;SDS011;17980;51.744;7.190;2023-02-25T00:26:11;11.27;;;1.63;;
27145;SDS011;17980;51.744;7.190;2023-02-25T00:28:39;7.97;;;0.93;;
27145;SDS011;17980;51.744;7.190;2023-02-25T00:31:08;10.47;;;1.90;;
27145;SDS011;17980;51.744;7.190;2023-02-25T00:33:45;11.20;;;1.97;;
27145;SDS011;17980;51.744;7.190;2023-02-25T00:36:13;14.47;;;1.97;;
27145;SDS011;17980;51.744;7.190;2023-02-25T00:38:45;7.30;;;1.70;;
27145;SDS011;17980;51.744;7.190;2023-02-25T00:41:13;10.13;;;1.23;;
27145;SDS011;17980;51.744;7.190;2023-02-25T00:43:51;12.67;;;1.40;;
27145;SDS011;17980;51.744;7.190;2023-02-25T00:46:19;10.93;;;1.50;;
27145;SDS011;17980;51.744;7.190;2023-02-25T00:48:47;11.57;;;1.47;;
27145;SDS011;17980;51.744;7.190;2023-02-25T00:51:15;9.80;;;1.37;;
27145;SDS011;17980;51.744;7.190;2023-02-25T00:53:53;10.17;;;1.30;;
27145;SDS011;17980;51.744;7.190;2023-02-25T00:56:21;6.47;;;1.43;;
27145;SDS011;17980;51.744;7.190;2023-02-25T00:58:50;8.07;;;1.60;;
27145;SDS011;17980;51.744;7.190;2023-02-25T01:01:18;12.07;;;1.93;;
27145;SDS011;17980;51.744;7.190;2023-02-25T01:03:56;10.23;;;1.27;;
27145;SDS011;17980;51.744;7.190;2023-02-25T01:06:24;13.10;;;1.50;;
27145;SDS011;17980;51.744;7.190;2023-02-25T01:08:52;9.73;;;1.33;;
27145;SDS011;17980;51.744;7.190;2023-02-25T01:11:20;8.67;;;1.27;;
27145;SDS011;17980;51.744;7.190;2023-02-25T01:14:10;10.23;;;2.27;;
27145;SDS011;17980;51.744;7.190;2023-02-25T01:16:47;10.77;;;1.07;;
27145;SDS011;17980;51.744;7.190;2023-02-25T01:19:17;11.87;;;2.07;;
27145;SDS011;17980;51.744;7.190;2023-02-25T01:21:47;9.73;;;1.50;;
27145;SDS011;17980;51.744;7.190;2023-02-25T01:24:25;13.27;;;1.73;;
27145;SDS011;17980;51.744;7.190;2023-02-25T01:26:53;12.60;;;1.70;;
27145;SDS011;17980;51.744;7.190;2023-02-25T01:29:23;4.80;;;0.70;;
27145;SDS011;17980;51.744;7.190;2023-02-25T01:32:01;15.50;;;1.40;;
27145;SDS011;17980;51.744;7.190;2023-02-25T01:34:29;8.67;;;1.27;;
27145;SDS011;17980;51.744;7.190;2023-02-25T01:36:58;15.70;;;1.73;;
27145;SDS011;17980;51.744;7.190;2023-02-25T01:39:25;12.97;;;2.20;;
27145;SDS011;17980;51.744;7.190;2023-02-25T01:42:15;14.00;;;1.77;;
27145;SDS011;17980;51.744;7.190;2023-02-25T01:47:16;13.10;;;1.90;;
27145;SDS011;17980;51.744;7.190;2023-02-25T01:49:44;9.23;;;1.83;;
27145;SDS011;17980;51.744;7.190;2023-02-25T01:52:22;13.13;;;1.63;;
27145;SDS011;17980;51.744;7.190;2023-02-25T01:54:51;8.37;;;1.03;;
27145;SDS011;17980;51.744;7.190;2023-02-25T01:57:22;14.30;;;1.63;;
27145;SDS011;17980;51.744;7.190;2023-02-25T01:59:51;17.27;;;1.77;;
27145;SDS011;17980;51.744;7.190;2023-02-25T02:02:29;11.90;;;1.20;;
27145;SDS011;17980;51.744;7.190;2023-02-25T02:04:58;10.70;;;1.93;;
27145;SDS011;17980;51.744;7.190;2023-02-25T02:07:26;11.33;;;1.50;;
27145;SDS011;17980;51.744;7.190;2023-02-25T02:09:53;13.40;;;1.37;;
27145;SDS011;17980;51.744;7.190;2023-02-25T02:12:31;18.43;;;1.67;;
27145;SDS011;17980;51.744;7.190;2023-02-25T02:15:02;13.07;;;1.40;;
27145;SDS011;17980;51.744;7.190;2023-02-25T02:17:34;7.07;;;1.13;;
27145;SDS011;17980;51.744;7.190;2023-02-25T02:20:15;10.03;;;1.60;;
27145;SDS011;17980;51.744;7.190;2023-02-25T02:22:53;5.60;;;1.00;;
27145;SDS011;17980;51.744;7.190;2023-02-25T02:25:58;12.70;;;1.93;;
27145;SDS011;17980;51.744;7.190;2023-02-25T02:32:05;6.37;;;1.03;;
27145;SDS011;17980;51.744;7.190;2023-02-25T02:37:20;9.53;;;1.27;;
27145;SDS011;17980;51.744;7.190;2023-02-25T02:40:04;9.20;;;1.37;;
27145;SDS011;17980;51.744;7.190;2023-02-25T02:42:37;21.20;;;2.00;;
27145;SDS011;17980;51.744;7.190;2023-02-25T02:45:10;13.77;;;1.27;;
27145;SDS011;17980;51.744;7.190;2023-02-25T02:47:41;9.90;;;1.60;;
27145;SDS011;17980;51.744;7.190;2023-02-25T02:50:19;11.00;;;1.17;;
27145;SDS011;17980;51.744;7.190;2023-02-25T02:52:51;12.17;;;1.87;;
27145;SDS011;17980;51.744;7.190;2023-02-25T02:55:30;17.20;;;2.40;;
27145;SDS011;17980;51.744;7.190;2023-02-25T02:57:59;9.93;;;1.77;;
27145;SDS011;17980;51.744;7.190;2023-02-25T03:00:38;7.57;;;1.60;;
27145;SDS011;17980;51.744;7.190;2023-02-25T03:03:10;10.20;;;1.37;;
27145;SDS011;17980;51.744;7.190;2023-02-25T03:05:48;11.27;;;1.47;;
27145;SDS011;17980;51.744;7.190;2023-02-25T03:08:18;17.83;;;1.77;;
27145;SDS011;17980;51.744;7.190;2023-02-25T03:10:49;13.73;;;1.50;;
27145;SDS011;17980;51.744;7.190;2023-02-25T03:13:25;16.63;;;2.20;;
27145;SDS011;17980;51.744;7.190;2023-02-25T03:15:53;16.33;;;2.00;;
27145;SDS011;17980;51.744;7.190;2023-02-25T03:18:22;15.27;;;3.20;;
27145;SDS011;17980;51.744;7.190;2023-02-25T03:20:52;8.87;;;1.20;;
27145;SDS011;17980;51.744;7.190;2023-02-25T03:23:30;14.43;;;1.90;;
27145;SDS011;17980;51.744;7.190;2023-02-25T03:26:01;10.40;;;1.30;;
27145;SDS011;17980;51.744;7.190;2023-02-25T03:28:32;13.97;;;1.57;;
27145;SDS011;17980;51.744;7.190;2023-02-25T03:31:00;13.93;;;1.70;;
27145;SDS011;17980;51.744;7.190;2023-02-25T03:33:33;11.20;;;1.40;;
27145;SDS011;17980;51.744;7.190;2023-02-25T03:36:05;20.17;;;2.13;;
27145;SDS011;17980;51.744;7.190;2023-02-25T03:38:35;11.70;;;2.43;;
27145;SDS011;17980;51.744;7.190;2023-02-25T03:41:13;13.73;;;2.00;;
27145;SDS011;17980;51.744;7.190;2023-02-25T03:43:43;12.70;;;2.43;;
27145;SDS011;17980;51.744;7.190;2023-02-25T03:46:21;11.63;;;2.03;;
27145;SDS011;17980;51.744;7.190;2023-02-25T03:48:50;7.97;;;1.30;;
27145;SDS011;17980;51.744;7.190;2023-02-25T03:51:20;13.40;;;1.53;;
27145;SDS011;17980;51.744;7.190;2023-02-25T03:53:50;12.90;;;1.80;;
27145;SDS011;17980;51.744;7.190;2023-02-25T03:56:27;12.40;;;1.63;;
27145;SDS011;17980;51.744;7.190;2023-02-25T03:58:55;11.90;;;1.67;;
27145;SDS011;17980;51.744;7.190;2023-02-25T04:01:24;10.03;;;1.50;;
27145;SDS011;17980;51.744;7.190;2023-02-25T04:04:01;15.67;;;1.80;;
27145;SDS011;17980;51.744;7.190;2023-02-25T04:06:29;12.40;;;1.57;;
27145;SDS011;17980;51.744;7.190;2023-02-25T04:08:57;10.77;;;1.53;;
27145;SDS011;17980;51.744;7.190;2023-02-25T04:11:24;11.53;;;2.33;;
27145;SDS011;17980;51.744;7.190;2023-02-25T04:14:01;16.47;;;2.80;;
27145;SDS011;17980;51.744;7.190;2023-02-25T04:16:28;14.23;;;3.60;;
27145;SDS011;17980;51.744;7.190;2023-02-25T04:18:55;14.03;;;3.10;;
27145;SDS011;17980;51.744;7.190;2023-02-25T04:21:24;15.23;;;3.13;;
27145;SDS011;17980;51.744;7.190;2023-02-25T04:24:02;19.03;;;3.90;;
27145;SDS011;17980;51.744;7.190;2023-02-25T04:26:31;15.17;;;3.57;;
27145;SDS011;17980;51.744;7.190;2023-02-25T04:28:59;14.23;;;2.40;;
27145;SDS011;17980;51.744;7.190;2023-02-25T04:31:36;16.03;;;2.10;;
27145;SDS011;17980;51.744;7.190;2023-02-25T04:34:03;9.83;;;1.80;;
27145;SDS011;17980;51.744;7.190;2023-02-25T04:36:40;15.83;;;2.10;;
27145;SDS011;17980;51.744;7.190;2023-02-25T04:39:09;16.37;;;2.17;;
27145;SDS011;17980;51.744;7.190;2023-02-25T04:41:38;14.73;;;1.50;;
27145;SDS011;17980;51.744;7.190;2023-02-25T04:44:15;10.03;;;1.50;;
27145;SDS011;17980;51.744;7.190;2023-02-25T04:46:42;14.93;;;1.70;;
27145;SDS011;17980;51.744;7.190;2023-02-25T04:49:09;12.43;;;1.60;;
27145;SDS011;17980;51.744;7.190;2023-02-25T04:51:37;15.10;;;2.07;;
27145;SDS011;17980;51.744;7.190;2023-02-25T04:54:14;21.20;;;1.93;;
27145;SDS011;17980;51.744;7.190;2023-02-25T04:56:43;14.63;;;1.43;;
27145;SDS011;17980;51.744;7.190;2023-02-25T04:59:10;9.97;;;1.80;;
27145;SDS011;17980;51.744;7.190;2023-02-25T05:01:38;17.70;;;2.37;;
27145;SDS011;17980;51.744;7.190;2023-02-25T05:04:15;20.03;;;2.53;;
27145;SDS011;17980;51.744;7.190;2023-02-25T05:06:42;19.73;;;2.23;;
27145;SDS011;17980;51.744;7.190;2023-02-25T05:09:09;20.10;;;2.83;;
27145;SDS011;17980;51.744;7.190;2023-02-25T05:11:37;16.27;;;2.10;;
27145;SDS011;17980;51.744;7.190;2023-02-25T05:14:13;13.23;;;2.87;;
27145;SDS011;17980;51.744;7.190;2023-02-25T05:16:41;16.60;;;1.70;;
27145;SDS011;17980;51.744;7.190;2023-02-25T05:19:08;14.47;;;1.93;;
27145;SDS011;17980;51.744;7.190;2023-02-25T05:21:37;13.10;;;2.23;;
27145;SDS011;17980;51.744;7.190;2023-02-25T05:24:14;12.70;;;2.20;;
27145;SDS011;17980;51.744;7.190;2023-02-25T05:26:41;15.53;;;2.17;;
27145;SDS011;17980;51.744;7.190;2023-02-25T05:29:10;15.27;;;2.47;;
27145;SDS011;17980;51.744;7.190;2023-02-25T05:31:37;15.70;;;1.80;;
27145;SDS011;17980;51.744;7.190;2023-02-25T05:34:15;12.53;;;1.70;;
27145;SDS011;17980;51.744;7.190;2023-02-25T05:36:42;13.40;;;2.60;;
27145;SDS011;17980;51.744;7.190;2023-02-25T05:39:11;18.17;;;7.67;;
27145;SDS011;17980;51.744;7.190;2023-02-25T05:41:39;15.27;;;2.70;;
27145;SDS011;17980;51.744;7.190;2023-02-25T05:44:16;20.90;;;2.33;;
27145;SDS011;17980;51.744;7.190;2023-02-25T05:46:43;15.83;;;2.87;;
27145;SDS011;17980;51.744;7.190;2023-02-25T05:49:10;16.53;;;1.60;;
27145;SDS011;17980;51.744;7.190;2023-02-25T05:51:37;12.17;;;2.20;;
27145;SDS011;17980;51.744;7.190;2023-02-25T05:54:14;14.03;;;1.87;;
27145;SDS011;17980;51.744;7.190;2023-02-25T05:56:41;20.03;;;2.83;;
27145;SDS011;17980;51.744;7.190;2023-02-25T05:59:09;17.47;;;3.17;;
27145;SDS011;17980;51.744;7.190;2023-02-25T06:01:37;11.70;;;1.57;;
27145;SDS011;17980;51.744;7.190;2023-02-25T06:04:14;13.97;;;2.00;;
27145;SDS011;17980;51.744;7.190;2023-02-25T06:06:41;14.97;;;2.70;;
27145;SDS011;17980;51.744;7.190;2023-02-25T06:09:10;13.40;;;2.13;;
27145;SDS011;17980;51.744;7.190;2023-02-25T06:11:37;19.30;;;2.80;;
27145;SDS011;17980;51.744;7.190;2023-02-25T06:14:14;16.73;;;3.20;;
27145;SDS011;17980;51.744;7.190;2023-02-25T06:16:42;17.40;;;2.97;;
27145;SDS011;17980;51.744;7.190;2023-02-25T06:19:09;17.13;;;2.60;;
27145;SDS011;17980;51.744;7.190;2023-02-25T06:21:37;14.80;;;2.20;;
27145;SDS011;17980;51.744;7.190;2023-02-25T06:24:14;21.97;;;2.53;;
27145;SDS011;17980;51.744;7.190;2023-02-25T06:26:41;11.40;;;1.33;;
27145;SDS011;17980;51.744;7.190;2023-02-25T06:29:08;9.20;;;1.37;;
27145;SDS011;17980;51.744;7.190;2023-02-25T06:31:35;16.70;;;1.33;;
27145;SDS011;17980;51.744;7.190;2023-02-25T06:34:12;13.40;;;2.17;;
27145;SDS011;17980;51.744;7.190;2023-02-25T06:36:40;21.30;;;2.73;;
27145;SDS011;17980;51.744;7.190;2023-02-25T06:39:07;17.40;;;2.00;;
27145;SDS011;17980;51.744;7.190;2023-02-25T06:41:34;17.57;;;3.47;;
27145;SDS011;17980;51.744;7.190;2023-02-25T06:44:11;10.87;;;1.57;;
27145;SDS011;17980;51.744;7.190;2023-02-25T06:46:38;16.23;;;2.37;;
27145;SDS011;17980;51.744;7.190;2023-02-25T06:49:06;17.13;;;2.07;;
27145;SDS011;17980;51.744;7.190;2023-02-25T06:51:33;7.17;;;2.10;;
27145;SDS011;17980;51.744;7.190;2023-02-25T06:54:10;15.47;;;2.00;;
27145;SDS011;17980;51.744;7.190;2023-02-25T06:56:37;14.20;;;1.87;;
27145;SDS011;17980;51.744;7.190;2023-02-25T06:59:04;14.43;;;1.60;;
27145;SDS011;17980;51.744;7.190;2023-02-25T07:01:31;13.93;;;2.37;;
27145;SDS011;17980;51.744;7.190;2023-02-25T07:04:11;22.90;;;2.40;;
27145;SDS011;17980;51.744;7.190;2023-02-25T07:06:41;12.97;;;1.73;;
27145;SDS011;17980;51.744;7.190;2023-02-25T07:09:08;16.53;;;2.63;;
27145;SDS011;17980;51.744;7.190;2023-02-25T07:11:35;15.03;;;2.27;;
27145;SDS011;17980;51.744;7.190;2023-02-25T07:14:12;11.57;;;1.60;;
27145;SDS011;17980;51.744;7.190;2023-02-25T07:16:41;13.17;;;1.97;;
27145;SDS011;17980;51.744;7.190;2023-02-25T07:19:08;12.87;;;1.83;;
27145;SDS011;17980;51.744;7.190;2023-02-25T07:21:35;12.97;;;1.40;;
27145;SDS011;17980;51.744;7.190;2023-02-25T07:24:12;14.57;;;2.30;;
27145;SDS011;17980;51.744;7.190;2023-02-25T07:26:39;22.90;;;1.93;;
27145;SDS011;17980;51.744;7.190;2023-02-25T07:29:07;16.60;;;2.37;;
27145;SDS011;17980;51.744;7.190;2023-02-25T07:31:34;14.43;;;2.23;;
27145;SDS011;17980;51.744;7.190;2023-02-25T07:34:11;15.17;;;2.60;;
27145;SDS011;17980;51.744;7.190;2023-02-25T07:36:39;17.53;;;2.07;;
27145;SDS011;17980;51.744;7.190;2023-02-25T07:39:08;19.53;;;2.17;;
27145;SDS011;17980;51.744;7.190;2023-02-25T07:41:45;12.50;;;2.23;;
27145;SDS011;17980;51.744;7.190;2023-02-25T07:44:13;16.00;;;1.93;;
27145;SDS011;17980;51.744;7.190;2023-02-25T07:46:50;16.43;;;2.30;;
27145;SDS011;17980;51.744;7.190;2023-02-25T07:49:17;19.33;;;2.47;;
27145;SDS011;17980;51.744;7.190;2023-02-25T07:51:45;17.23;;;2.47;;
27145;SDS011;17980;51.744;7.190;2023-02-25T07:54:21;13.37;;;1.60;;
27145;SDS011;17980;51.744;7.190;2023-02-25T07:56:49;12.17;;;1.40;;
27145;SDS011;17980;51.744;7.190;2023-02-25T07:59:17;17.87;;;3.37;;
27145;SDS011;17980;51.744;7.190;2023-02-25T08:01:44;13.77;;;2.37;;
27145;SDS011;17980;51.744;7.190;2023-02-25T08:04:27;13.13;;;2.23;;
27145;SDS011;17980;51.744;7.190;2023-02-25T08:09:30;12.03;;;2.20;;
27145;SDS011;17980;51.744;7.190;2023-02-25T08:11:58;12.47;;;2.40;;
27145;SDS011;17980;51.744;7.190;2023-02-25T08:14:35;14.33;;;2.33;;
27145;SDS011;17980;51.744;7.190;2023-02-25T08:17:03;7.50;;;1.07;;
27145;SDS011;17980;51.744;7.190;2023-02-25T08:19:30;14.30;;;2.67;;
27145;SDS011;17980;51.744;7.190;2023-02-25T08:22:07;13.67;;;1.67;;
27145;SDS011;17980;51.744;7.190;2023-02-25T08:24:36;9.17;;;1.43;;
27145;SDS011;17980;51.744;7.190;2023-02-25T08:27:04;8.07;;;1.17;;
27145;SDS011;17980;51.744;7.190;2023-02-25T08:29:32;14.73;;;1.50;;
27145;SDS011;17980;51.744;7.190;2023-02-25T08:32:09;9.20;;;1.27;;
27145;SDS011;17980;51.744;7.190;2023-02-25T08:34:36;6.67;;;0.90;;
27145;SDS011;17980;51.744;7.190;2023-02-25T08:37:03;10.23;;;1.60;;
27145;SDS011;17980;51.744;7.190;2023-02-25T08:39:32;6.80;;;1.20;;
27145;SDS011;17980;51.744;7.190;2023-02-25T08:42:09;5.23;;;1.00;;
27145;SDS011;17980;51.744;7.190;2023-02-25T08:44:38;8.47;;;0.93;;
27145;SDS011;17980;51.744;7.190;2023-02-25T08:47:17;11.90;;;1.73;;
27145;SDS011;17980;51.744;7.190;2023-02-25T08:49:44;8.90;;;1.17;;
27145;SDS011;17980;51.744;7.190;2023-02-25T08:52:21;7.60;;;1.10;;
27145;SDS011;17980;51.744;7.190;2023-02-25T08:54:49;10.00;;;1.40;;
27145;SDS011;17980;51.744;7.190;2023-02-25T08:57:16;8.93;;;1.87;;
27145;SDS011;17980;51.744;7.190;2023-02-25T08:59:43;8.47;;;1.00;;
27145;SDS011;17980;51.744;7.190;2023-02-25T09:02:20;6.87;;;1.23;;
27145;SDS011;17980;51.744;7.190;2023-02-25T09:07:18;4.03;;;0.93;;
27145;SDS011;17980;51.744;7.190;2023-02-25T09:09:47;6.30;;;1.10;;
27145;SDS011;17980;51.744;7.190;2023-02-25T09:12:14;7.93;;;0.83;;
27145;SDS011;17980;51.744;7.190;2023-02-25T09:14:41;8.33;;;1.43;;
27145;SDS011;17980;51.744;7.190;2023-02-25T09:17:18;4.47;;;0.90;;
27145;SDS011;17980;51.744;7.190;2023-02-25T09:19:45;9.67;;;0.70;;
27145;SDS011;17980;51.744;7.190;2023-02-25T09:22:13;8.50;;;0.80;;
27145;SDS011;17980;51.744;7.190;2023-02-25T09:24:41;6.93;;;1.07;;
27145;SDS011;17980;51.744;7.190;2023-02-25T09:27:09;5.80;;;0.43;;
27145;SDS011;17980;51.744;7.190;2023-02-25T09:29:46;3.93;;;1.13;;
27145;SDS011;17980;51.744;7.190;2023-02-25T09:32:14;5.17;;;0.67;;
27145;SDS011;17980;51.744;7.190;2023-02-25T09:34:43;4.07;;;0.70;;
27145;SDS011;17980;51.744;7.190;2023-02-25T09:39:46;2.43;;;0.37;;
27145;SDS011;17980;51.744;7.190;2023-02-25T09:42:16;2.30;;;0.87;;
27145;SDS011;17980;51.744;7.190;2023-02-25T09:44:47;3.93;;;0.80;;
27145;SDS011;17980;51.744;7.190;2023-02-25T09:47:26;3.07;;;0.40;;
27145;SDS011;17980;51.744;7.190;2023-02-25T09:49:57;3.47;;;0.50;;
27145;SDS011;17980;51.744;7.190;2023-02-25T09:52:28;1.13;;;0.27;;
27145;SDS011;17980;51.744;7.190;2023-02-25T09:54:59;2.57;;;0.40;;
27145;SDS011;17980;51.744;7.190;2023-02-25T09:57:38;2.80;;;0.40;;
27145;SDS011;17980;51.744;7.190;2023-02-25T10:00:13;3.03;;;0.50;;
27145;SDS011;17980;51.744;7.190;2023-02-25T10:02:45;4.20;;;0.53;;
27145;SDS011;17980;51.744;7.190;2023-02-25T10:08:06;1.67;;;1.00;;
27145;SDS011;17980;51.744;7.190;2023-02-25T10:10:46;2.27;;;0.53;;
27145;SDS011;17980;51.744;7.190;2023-02-25T10:13:20;2.83;;;0.50;;
27145;SDS011;17980;51.744;7.190;2023-02-25T10:16:01;2.97;;;0.63;;
27145;SDS011;17980;51.744;7.190;2023-02-25T10:18:39;5.93;;;0.63;;
27145;SDS011;17980;51.744;7.190;2023-02-25T10:21:14;3.73;;;0.60;;
27145;SDS011;17980;51.744;7.190;2023-02-25T10:23:52;2.27;;;0.63;;
27145;SDS011;17980;51.744;7.190;2023-02-25T10:26:32;6.97;;;0.40;;
27145;SDS011;17980;51.744;7.190;2023-02-25T10:29:11;5.30;;;0.70;;
27145;SDS011;17980;51.744;7.190;2023-02-25T10:31:42;7.33;;;0.90;;
27145;SDS011;17980;51.744;7.190;2023-02-25T10:34:15;5.40;;;0.83;;
27145;SDS011;17980;51.744;7.190;2023-02-25T10:36:55;3.70;;;0.83;;
27145;SDS011;17980;51.744;7.190;2023-02-25T10:39:24;4.43;;;0.70;;
27145;SDS011;17980;51.744;7.190;2023-02-25T10:42:04;7.67;;;0.93;;
27145;SDS011;17980;51.744;7.190;2023-02-25T10:44:31;8.73;;;0.80;;
27145;SDS011;17980;51.744;7.190;2023-02-25T10:47:02;2.40;;;0.67;;
27145;SDS011;17980;51.744;7.190;2023-02-25T10:49:39;7.37;;;0.90;;
27145;SDS011;17980;51.744;7.190;2023-02-25T10:52:12;4.70;;;0.60;;
27145;SDS011;17980;51.744;7.190;2023-02-25T10:54:50;5.80;;;0.77;;
27145;SDS011;17980;51.744;7.190;2023-02-25T10:57:22;6.13;;;1.00;;
27145;SDS011;17980;51.744;7.190;2023-02-25T10:59:59;5.13;;;1.10;;
27145;SDS011;17980;51.744;7.190;2023-02-25T11:02:29;8.83;;;0.87;;
27145;SDS011;17980;51.744;7.190;2023-02-25T11:04:59;5.97;;;0.80;;
27145;SDS011;17980;51.744;7.190;2023-02-25T11:07:38;5.37;;;0.70;;
27145;SDS011;17980;51.744;7.190;2023-02-25T11:10:12;4.20;;;0.80;;
27145;SDS011;17980;51.744;7.190;2023-02-25T11:12:49;4.37;;;0.67;;
27145;SDS011;17980;51.744;7.190;2023-02-25T11:15:25;5.17;;;0.93;;
27145;SDS011;17980;51.744;7.190;2023-02-25T11:18:05;9.47;;;1.20;;
27145;SDS011;17980;51.744;7.190;2023-02-25T11:20:35;4.17;;;0.63;;
27145;SDS011;17980;51.744;7.190;2023-02-25T11:23:13;4.60;;;0.67;;
27145;SDS011;17980;51.744;7.190;2023-02-25T11:25:44;8.97;;;1.10;;
27145;SDS011;17980;51.744;7.190;2023-02-25T11:28:27;4.83;;;0.60;;
27145;SDS011;17980;51.744;7.190;2023-02-25T11:31:03;9.07;;;1.37;;
27145;SDS011;17980;51.744;7.190;2023-02-25T11:33:36;8.33;;;0.90;;
27145;SDS011;17980;51.744;7.190;2023-02-25T11:36:06;4.00;;;0.70;;
27145;SDS011;17980;51.744;7.190;2023-02-25T11:41:20;5.20;;;1.03;;
27145;SDS011;17980;51.744;7.190;2023-02-25T11:43:48;4.87;;;0.80;;
27145;SDS011;17980;51.744;7.190;2023-02-25T11:46:17;10.57;;;2.37;;
27145;SDS011;17980;51.744;7.190;2023-02-25T11:48:56;7.60;;;1.80;;
27145;SDS011;17980;51.744;7.190;2023-02-25T11:51:27;2.47;;;0.57;;
27145;SDS011;17980;51.744;7.190;2023-02-25T11:54:11;5.27;;;1.03;;
27145;SDS011;17980;51.744;7.190;2023-02-25T11:56:54;7.63;;;1.00;;
27145;SDS011;17980;51.744;7.190;2023-02-25T11:59:30;4.90;;;1.00;;
27145;SDS011;17980;51.744;7.190;2023-02-25T12:02:26;9.67;;;0.90;;
27145;SDS011;17980;51.744;7.190;2023-02-25T12:05:05;6.07;;;1.50;;
27145;SDS011;17980;51.744;7.190;2023-02-25T12:07:55;8.37;;;0.70;;
27145;SDS011;17980;51.744;7.190;2023-02-25T12:20:09;5.53;;;0.70;;
27145;SDS011;17980;51.744;7.190;2023-02-25T12:29:58;2.73;;;0.63;;
27145;SDS011;17980;51.744;7.190;2023-02-25T12:32:42;6.50;;;0.70;;
27145;SDS011;17980;51.744;7.190;2023-02-25T12:38:47;3.33;;;0.60;;
27145;SDS011;17980;51.744;7.190;2023-02-25T12:41:32;4.33;;;0.63;;
27145;SDS011;17980;51.744;7.190;2023-02-25T12:53:11;3.00;;;0.50;;
27145;SDS011;17980;51.744;7.190;2023-02-25T12:55:56;4.80;;;0.70;;
27145;SDS011;17980;51.744;7.190;2023-02-25T12:58:45;3.13;;;0.40;;
27145;SDS011;17980;51.744;7.190;2023-02-25T13:01:21;1.47;;;0.37;;
27145;SDS011;17980;51.744;7.190;2023-02-25T13:04:13;1.00;;;0.30;;
27145;SDS011;17980;51.744;7.190;2023-02-25T13:07:12;3.23;;;0.60;;
27145;SDS011;17980;51.744;7.190;2023-02-25T13:09:48;3.10;;;0.70;;
27145;SDS011;17980;51.744;7.190;2023-02-25T13:12:51;2.33;;;0.47;;
27145;SDS011;17980;51.744;7.190;2023-02-25T13:15:29;3.60;;;0.40;;
27145;SDS011;17980;51.744;7.190;2023-02-25T13:18:08;2.83;;;0.50;;
27145;SDS011;17980;51.744;7.190;2023-02-25T13:21:00;8.13;;;0.60;;
27145;SDS011;17980;51.744;7.190;2023-02-25T13:24:02;1.90;;;0.37;;
27145;SDS011;17980;51.744;7.190;2023-02-25T13:26:53;4.10;;;0.50;;
27145;SDS011;17980;51.744;7.190;2023-02-25T13:29:36;3.23;;;0.50;;
27145;SDS011;17980;51.744;7.190;2023-02-25T13:32:20;2.90;;;0.93;;
27145;SDS011;17980;51.744;7.190;2023-02-25T13:34:56;1.90;;;0.40;;
27145;SDS011;17980;51.744;7.190;2023-02-25T13:37:42;4.63;;;0.40;;
27145;SDS011;17980;51.744;7.190;2023-02-25T13:40:19;5.23;;;0.50;;
27145;SDS011;17980;51.744;7.190;2023-02-25T13:43:05;1.17;;;0.40;;
27145;SDS011;17980;51.744;7.190;2023-02-25T13:46:11;1.67;;;0.60;;
27145;SDS011;17980;51.744;7.190;2023-02-25T13:48:58;1.97;;;0.33;;
27145;SDS011;17980;51.744;7.190;2023-02-25T13:54:54;1.50;;;0.40;;
27145;SDS011;17980;51.744;7.190;2023-02-25T14:00:33;0.93;;;0.50;;
27145;SDS011;17980;51.744;7.190;2023-02-25T14:06:34;1.10;;;0.30;;
27145;SDS011;17980;51.744;7.190;2023-02-25T14:09:22;1.13;;;0.30;;
27145;SDS011;17980;51.744;7.190;2023-02-25T14:11:57;2.50;;;0.33;;
27145;SDS011;17980;51.744;7.190;2023-02-25T14:14:41;1.00;;;0.40;;
27145;SDS011;17980;51.744;7.190;2023-02-25T14:17:26;1.13;;;0.20;;
27145;SDS011;17980;51.744;7.190;2023-02-25T14:22:39;0.70;;;0.30;;
27145;SDS011;17980;51.744;7.190;2023-02-25T14:25:21;1.43;;;0.30;;
27145;SDS011;17980;51.744;7.190;2023-02-25T14:28:11;1.13;;;0.50;;
27145;SDS011;17980;51.744;7.190;2023-02-25T14:30:48;2.00;;;0.40;;
27145;SDS011;17980;51.744;7.190;2023-02-25T14:33:35;3.10;;;0.50;;
27145;SDS011;17980;51.744;7.190;2023-02-25T14:39:27;2.20;;;0.40;;
27145;SDS011;17980;51.744;7.190;2023-02-25T14:42:02;7.23;;;3.87;;
27145;SDS011;17980;51.744;7.190;2023-02-25T14:44:34;4.37;;;1.60;;
27145;SDS011;17980;51.744;7.190;2023-02-25T14:47:13;17.83;;;11.30;;
27145;SDS011;17980;51.744;7.190;2023-02-25T14:49:46;2.70;;;0.60;;
27145;SDS011;17980;51.744;7.190;2023-02-25T14:55:53;3.03;;;0.63;;
27145;SDS011;17980;51.744;7.190;2023-02-25T15:01:29;3.40;;;0.93;;
27145;SDS011;17980;51.744;7.190;2023-02-25T15:07:25;3.70;;;0.40;;
27145;SDS011;17980;51.744;7.190;2023-02-25T15:10:13;1.47;;;0.57;;
27145;SDS011;17980;51.744;7.190;2023-02-25T15:16:29;1.37;;;0.37;;
27145;SDS011;17980;51.744;7.190;2023-02-25T15:19:17;2.30;;;0.40;;
27145;SDS011;17980;51.744;7.190;2023-02-25T15:22:20;2.10;;;0.40;;
27145;SDS011;17980;51.744;7.190;2023-02-25T15:24:50;0.90;;;0.30;;
27145;SDS011;17980;51.744;7.190;2023-02-25T15:27:41;1.60;;;0.40;;
27145;SDS011;17980;51.744;7.190;2023-02-25T15:30:13;2.53;;;0.47;;
27145;SDS011;17980;51.744;7.190;2023-02-25T15:32:48;2.83;;;0.40;;
27145;SDS011;17980;51.744;7.190;2023-02-25T15:35:54;1.73;;;0.50;;
27145;SDS011;17980;51.744;7.190;2023-02-25T15:38:43;4.33;;;0.50;;
27145;SDS011;17980;51.744;7.190;2023-02-25T15:47:24;2.17;;;0.50;;
27145;SDS011;17980;51.744;7.190;2023-02-25T15:49:55;2.63;;;0.43;;
27145;SDS011;17980;51.744;7.190;2023-02-25T15:55:40;1.10;;;0.40;;
27145;SDS011;17980;51.744;7.190;2023-02-25T16:01:25;1.43;;;0.53;;
27145;SDS011;17980;51.744;7.190;2023-02-25T16:03:56;4.33;;;1.03;;
27145;SDS011;17980;51.744;7.190;2023-02-25T16:06:25;1.50;;;0.37;;
27145;SDS011;17980;51.744;7.190;2023-02-25T16:09:05;1.27;;;0.50;;
27145;SDS011;17980;51.744;7.190;2023-02-25T16:11:35;3.93;;;0.93;;
27145;SDS011;17980;51.744;7.190;2023-02-25T16:14:06;3.40;;;0.30;;
27145;SDS011;17980;51.744;7.190;2023-02-25T16:16:46;2.00;;;0.50;;
27145;SDS011;17980;51.744;7.190;2023-02-25T16:19:16;1.13;;;0.30;;
27145;SDS011;17980;51.744;7.190;2023-02-25T16:21:56;1.53;;;0.30;;
27145;SDS011;17980;51.744;7.190;2023-02-25T16:24:25;1.47;;;0.50;;
27145;SDS011;17980;51.744;7.190;2023-02-25T16:26:55;1.37;;;0.40;;
27145;SDS011;17980;51.744;7.190;2023-02-25T16:29:36;2.80;;;0.50;;
27145;SDS011;17980;51.744;7.190;2023-02-25T16:32:18;1.40;;;0.60;;
27145;SDS011;17980;51.744;7.190;2023-02-25T16:34:50;1.40;;;0.30;;
27145;SDS011;17980;51.744;7.190;2023-02-25T16:37:31;1.20;;;0.40;;
27145;SDS011;17980;51.744;7.190;2023-02-25T16:40:02;1.40;;;0.43;;
27145;SDS011;17980;51.744;7.190;2023-02-25T16:42:31;0.93;;;0.37;;
27145;SDS011;17980;51.744;7.190;2023-02-25T16:45:13;3.03;;;0.40;;
27145;SDS011;17980;51.744;7.190;2023-02-25T16:47:42;0.93;;;0.30;;
27145;SDS011;17980;51.744;7.190;2023-02-25T16:50:19;3.57;;;0.53;;
27145;SDS011;17980;51.744;7.190;2023-02-25T16:52:50;1.93;;;0.50;;